Time;durP1;ratioP1;P1;durP2;ratioP2;P2;SDS_P1;SDS_P2;PMS_P1;PMS_P2;Temp;Humidity;BMP_temperature;BMP_pressure;BME280_temperature;BME280_humidity;BME280_pressure;Samples;Min_cycle;Max_cycle;Signal;HPM_P1;HPM_P2
2021/07/29 03:21:37;;;;;;;1.90;1.80;;;21.20;99.90;;;;;;5031530;28;20643;-70
2021/07/29 03:24:04;;;;;;;1.75;1.65;;;21.20;99.90;;;;;;5048539;28;20202;-70
2021/07/29 03:26:31;;;;;;;2.22;2.03;;;21.20;99.90;;;;;;5050657;28;20662;-70
2021/07/29 03:28:58;;;;;;;1.70;1.60;;;21.20;99.90;;;;;;5038226;28;20209;-70
2021/07/29 03:31:25;;;;;;;2.10;1.90;;;21.20;99.90;;;;;;5050556;28;20194;-70
2021/07/29 03:33:52;;;;;;;2.10;2.00;;;21.30;99.90;;;;;;5037874;28;20201;-70
2021/07/29 03:36:20;;;;;;;1.90;1.80;;;21.30;99.90;;;;;;5049445;28;20209;-70
2021/07/29 03:38:48;;;;;;;1.77;1.67;;;21.30;99.90;;;;;;5047781;28;20229;-70
2021/07/29 03:41:15;;;;;;;2.00;1.90;;;21.30;99.90;;;;;;5049704;28;20227;-70
2021/07/29 03:43:42;;;;;;;2.50;2.40;;;21.40;99.90;;;;;;5048919;28;20259;-71
2021/07/29 03:46:10;;;;;;;2.55;2.00;;;21.40;99.90;;;;;;5048564;28;20197;-70
2021/07/29 03:48:37;;;;;;;1.85;1.75;;;21.30;99.90;;;;;;5050932;28;20688;-70
2021/07/29 03:51:04;;;;;;;1.80;1.70;;;21.40;99.90;;;;;;5049544;28;20697;-70
2021/07/29 03:53:31;;;;;;;2.00;1.90;;;21.40;99.90;;;;;;5049083;28;20229;-70
2021/07/29 03:55:59;;;;;;;2.60;1.60;;;21.40;99.90;;;;;;5048993;28;20267;-70
2021/07/29 03:58:26;;;;;;;2.28;2.17;;;21.40;99.90;;;;;;5049249;28;20528;-69
2021/07/29 04:00:57;;;;;;;3.25;2.95;;;21.40;99.90;;;;;;5050108;28;20202;-69
2021/07/29 04:03:24;;;;;;;2.55;2.40;;;21.40;99.90;;;;;;5048659;28;20198;-70
2021/07/29 04:05:51;;;;;;;2.28;2.17;;;21.40;99.90;;;;;;5049890;28;20190;-70
2021/07/29 04:08:18;;;;;;;4.72;2.40;;;21.40;99.90;;;;;;5049378;28;20284;-71
2021/07/29 04:10:44;;;;;;;2.28;2.17;;;21.40;99.90;;;;;;5048838;28;20194;-71
2021/07/29 04:13:13;;;;;;;2.28;2.17;;;21.40;99.90;;;;;;5049902;28;20194;-70
2021/07/29 04:15:39;;;;;;;4.80;1.95;;;21.40;99.90;;;;;;5047900;28;20222;-70
2021/07/29 04:18:06;;;;;;;2.00;1.90;;;21.50;99.90;;;;;;5049900;28;20595;-70
2021/07/29 04:20:33;;;;;;;2.30;2.20;;;21.50;99.90;;;;;;5049446;28;20248;-70
2021/07/29 04:23:00;;;;;;;2.10;2.00;;;21.50;99.90;;;;;;5048570;28;20198;-70
2021/07/29 04:25:27;;;;;;;2.60;2.40;;;21.50;99.90;;;;;;5046916;28;20208;-70
2021/07/29 04:27:54;;;;;;;2.30;2.20;;;21.50;99.90;;;;;;5063485;28;20210;-70
2021/07/29 04:30:22;;;;;;;1.90;1.80;;;21.50;99.90;;;;;;5049316;28;20194;-70
2021/07/29 04:32:49;;;;;;;1.90;1.80;;;21.50;99.90;;;;;;5048105;28;20698;-70
2021/07/29 04:35:16;;;;;;;1.90;1.80;;;21.60;99.90;;;;;;5049036;28;20298;-70
2021/07/29 04:37:43;;;;;;;2.13;2.03;;;21.60;99.90;;;;;;5049063;28;20511;-70
2021/07/29 04:40:11;;;;;;;1.88;1.77;;;21.70;99.90;;;;;;5046951;28;20204;-70
2021/07/29 04:42:38;;;;;;;2.38;2.28;;;21.70;99.90;;;;;;5049343;28;20205;-70
2021/07/29 04:45:06;;;;;;;1.80;1.70;;;21.70;99.90;;;;;;5048270;28;20202;-70
2021/07/29 04:47:34;;;;;;;2.42;2.22;;;21.70;99.90;;;;;;5049784;28;20636;-71
2021/07/29 04:50:01;;;;;;;2.72;2.35;;;21.80;99.90;;;;;;5049470;28;20212;-73
2021/07/29 04:52:28;;;;;;;3.05;2.63;;;21.80;99.90;;;;;;5048098;28;20198;-73
2021/07/29 04:54:55;;;;;;;2.20;2.10;;;21.80;99.90;;;;;;5044725;28;20218;-72
2021/07/29 04:57:21;;;;;;;2.20;2.10;;;21.80;99.90;;;;;;5049844;28;20206;-73
2021/07/29 04:59:49;;;;;;;2.00;1.90;;;21.80;99.90;;;;;;5046625;28;20653;-73
2021/07/29 05:02:17;;;;;;;1.92;1.83;;;21.90;99.90;;;;;;5038382;28;20614;-75
2021/07/29 05:04:45;;;;;;;2.17;2.08;;;21.90;99.90;;;;;;5049444;28;20229;-72
2021/07/29 05:07:12;;;;;;;1.90;1.80;;;22.00;99.90;;;;;;5039711;28;20280;-72
2021/07/29 05:09:39;;;;;;;2.55;2.35;;;22.10;99.90;;;;;;5043619;28;20558;-73
2021/07/29 05:12:07;;;;;;;3.08;2.22;;;22.00;99.90;;;;;;5047690;28;20216;-73
2021/07/29 05:14:34;;;;;;;2.28;2.10;;;22.20;99.90;;;;;;5047469;28;20209;-73
2021/07/29 05:17:01;;;;;;;2.67;2.47;;;22.20;99.90;;;;;;5047746;28;20209;-73
2021/07/29 05:19:28;;;;;;;2.22;2.03;;;22.30;99.90;;;;;;5046855;28;20232;-73
2021/07/29 05:21:57;;;;;;;1.90;1.80;;;22.40;99.90;;;;;;5047055;28;20197;-72
2021/07/29 05:24:24;;;;;;;2.00;1.90;;;22.40;99.90;;;;;;5046701;28;20217;-73
2021/07/29 05:26:51;;;;;;;2.38;2.28;;;22.40;99.90;;;;;;5048843;28;20200;-73
2021/07/29 05:29:17;;;;;;;2.03;1.92;;;22.60;99.90;;;;;;5051629;28;20197;-73
2021/07/29 05:31:44;;;;;;;2.03;1.92;;;22.70;99.90;;;;;;5048839;28;20206;-73
2021/07/29 05:34:12;;;;;;;2.22;2.13;;;22.80;99.90;;;;;;5046656;28;20209;-73
2021/07/29 05:36:39;;;;;;;2.00;1.90;;;22.90;99.90;;;;;;5048685;28;20268;-73
2021/07/29 05:39:07;;;;;;;1.90;1.80;;;23.00;99.90;;;;;;5047128;28;20225;-73
2021/07/29 05:41:35;;;;;;;2.08;1.98;;;23.10;99.90;;;;;;5046745;28;20210;-73
2021/07/29 05:44:02;;;;;;;2.13;2.03;;;23.20;99.90;;;;;;5047684;28;20229;-73
2021/07/29 05:46:28;;;;;;;1.85;1.75;;;23.40;99.90;;;;;;5048597;28;20217;-73
2021/07/29 05:48:55;;;;;;;1.90;1.80;;;23.70;99.90;;;;;;5047211;28;20550;-73
2021/07/29 05:51:22;;;;;;;2.85;1.90;;;24.10;99.90;;;;;;5048590;28;20197;-73
2021/07/29 05:53:49;;;;;;;1.85;1.75;;;24.70;99.90;;;;;;5045416;28;20305;-73
2021/07/29 05:56:17;;;;;;;2.10;2.00;;;25.20;99.90;;;;;;5045954;28;20240;-73
2021/07/29 05:58:44;;;;;;;2.42;2.30;;;25.30;99.90;;;;;;5047942;28;20193;-73
2021/07/29 06:01:11;;;;;;;4.03;2.10;;;25.60;99.60;;;;;;5048256;28;20209;-73
2021/07/29 06:03:38;;;;;;;2.22;2.00;;;26.80;98.50;;;;;;5046268;28;20221;-73
2021/07/29 06:06:05;;;;;;;2.05;1.95;;;28.50;96.20;;;;;;5048117;28;20190;-73
2021/07/29 06:08:32;;;;;;;2.17;1.95;;;30.30;92.80;;;;;;5045389;28;20244;-73
2021/07/29 06:11:02;;;;;;;2.20;2.00;;;31.90;88.60;;;;;;5049964;28;20194;-73
2021/07/29 06:13:30;;;;;;;2.33;2.03;;;33.50;81.20;;;;;;5051681;28;20221;-73
2021/07/29 06:15:59;;;;;;;2.60;2.50;;;35.00;74.00;;;;;;5050522;28;20226;-75
2021/07/29 06:18:26;;;;;;;2.22;2.03;;;36.30;67.30;;;;;;5052114;28;20212;-74
2021/07/29 06:20:53;;;;;;;2.63;2.50;;;37.60;61.30;;;;;;5050914;28;20325;-74
2021/07/29 06:23:20;;;;;;;2.50;2.40;;;39.00;56.80;;;;;;5048406;28;20271;-73
2021/07/29 06:25:47;;;;;;;3.00;2.78;;;40.50;52.10;;;;;;5050773;28;20198;-73
2021/07/29 06:28:15;;;;;;;2.55;2.45;;;42.00;47.90;;;;;;5054430;28;20193;-73
2021/07/29 06:30:44;;;;;;;3.03;2.67;;;43.30;44.50;;;;;;5051806;28;20691;-73
2021/07/29 06:33:11;;;;;;;3.40;3.10;;;44.60;42.10;;;;;;5050285;28;20201;-73
2021/07/29 06:35:38;;;;;;;3.50;3.20;;;45.80;39.50;;;;;;5049854;28;20213;-73
2021/07/29 06:38:05;;;;;;;3.10;3.00;;;46.80;36.80;;;;;;5051091;28;20617;-73
2021/07/29 06:40:32;;;;;;;3.10;2.90;;;47.80;34.90;;;;;;5050622;28;20721;-73
2021/07/29 06:42:59;;;;;;;3.22;3.08;;;48.80;34.00;;;;;;5051672;28;20198;-73
2021/07/29 06:45:25;;;;;;;3.17;2.97;;;49.60;32.10;;;;;;5050845;28;20282;-74
2021/07/29 06:47:54;;;;;;;3.70;3.28;;;50.30;30.70;;;;;;5051927;28;20205;-73
2021/07/29 06:50:21;;;;;;;2.90;2.80;;;50.70;29.50;;;;;;5051718;28;20560;-73
2021/07/29 06:52:48;;;;;;;3.50;3.22;;;51.20;29.20;;;;;;5050904;28;20198;-73
2021/07/29 06:55:15;;;;;;;3.70;3.50;;;51.60;28.80;;;;;;5048224;28;20662;-73
2021/07/29 06:57:41;;;;;;;4.38;3.92;;;52.20;27.70;;;;;;5050214;28;20214;-74
2021/07/29 07:00:10;;;;;;;3.70;3.50;;;52.70;27.10;;;;;;5051397;28;20205;-74
2021/07/29 07:02:36;;;;;;;3.95;3.65;;;53.00;26.20;;;;;;5050310;28;20545;-74
2021/07/29 07:05:05;;;;;;;3.83;3.50;;;53.50;25.80;;;;;;5050867;28;20538;-74
2021/07/29 07:07:32;;;;;;;4.15;3.88;;;54.00;25.70;;;;;;5049161;28;20205;-73
2021/07/29 07:09:59;;;;;;;3.58;3.47;;;54.40;25.00;;;;;;5048713;28;20511;-73
2021/07/29 07:12:26;;;;;;;4.18;3.97;;;55.00;24.80;;;;;;5051253;28;20193;-73
2021/07/29 07:14:53;;;;;;;4.63;4.20;;;55.40;24.10;;;;;;5050742;28;20579;-73
2021/07/29 07:17:20;;;;;;;5.38;4.60;;;55.80;23.40;;;;;;5051148;28;20203;-73
2021/07/29 07:19:48;;;;;;;4.63;4.43;;;56.00;22.70;;;;;;5050932;28;20237;-73
2021/07/29 07:22:16;;;;;;;3.92;3.78;;;56.00;22.30;;;;;;5047671;28;20616;-73
2021/07/29 07:24:43;;;;;;;3.67;3.47;;;56.00;22.60;;;;;;5049400;28;20201;-74
2021/07/29 07:27:12;;;;;;;3.80;3.70;;;56.30;22.30;;;;;;5050602;28;20217;-73
2021/07/29 07:29:40;;;;;;;4.65;4.35;;;56.30;22.30;;;;;;5051929;28;20292;-73
2021/07/29 07:32:07;;;;;;;4.25;4.05;;;56.50;21.70;;;;;;5051447;28;20197;-73
2021/07/29 07:34:34;;;;;;;4.47;4.18;;;56.40;21.30;;;;;;5050016;28;20278;-74
2021/07/29 07:37:01;;;;;;;4.63;4.22;;;56.10;21.10;;;;;;5050990;28;20190;-73
2021/07/29 07:39:30;;;;;;;4.07;3.95;;;55.60;21.50;;;;;;5048917;28;20312;-73
2021/07/29 07:41:57;;;;;;;5.40;5.10;;;54.90;21.80;;;;;;5051162;28;20307;-73
2021/07/29 07:44:24;;;;;;;4.40;4.20;;;53.60;22.20;;;;;;5047960;28;20596;-74
2021/07/29 07:46:51;;;;;;;4.30;4.10;;;51.60;23.60;;;;;;5049528;28;20251;-73
2021/07/29 07:49:18;;;;;;;4.13;3.92;;;49.70;24.20;;;;;;5049333;28;20368;-73
2021/07/29 07:51:44;;;;;;;4.10;3.90;;;48.00;25.00;;;;;;5050962;28;20204;-73
2021/07/29 07:54:12;;;;;;;4.00;3.80;;;46.70;25.70;;;;;;5046690;28;20201;-73
2021/07/29 07:56:43;;;;;;;3.83;3.63;;;45.60;26.40;;;;;;5049650;28;20653;-73
2021/07/29 07:59:11;;;;;;;3.95;3.75;;;44.50;27.10;;;;;;5048334;28;20628;-73
2021/07/29 08:01:39;;;;;;;3.60;3.40;;;43.60;27.70;;;;;;5050762;28;20193;-73
2021/07/29 08:04:06;;;;;;;3.45;3.28;;;42.80;28.40;;;;;;5048279;28;20197;-74
2021/07/29 08:06:33;;;;;;;3.60;3.30;;;42.20;28.90;;;;;;5049948;28;20300;-73
2021/07/29 08:09:01;;;;;;;3.42;3.13;;;41.70;29.20;;;;;;5047783;28;20193;-73
2021/07/29 08:11:29;;;;;;;3.42;3.20;;;41.10;29.60;;;;;;5049390;28;20197;-73
2021/07/29 08:13:57;;;;;;;3.58;3.38;;;40.70;30.00;;;;;;5048933;28;20201;-74
2021/07/29 08:16:24;;;;;;;3.38;3.28;;;40.50;30.30;;;;;;5049847;28;20273;-74
2021/07/29 08:18:53;;;;;;;3.10;2.90;;;40.30;30.40;;;;;;5050388;28;20207;-74
2021/07/29 08:21:19;;;;;;;4.03;3.72;;;40.10;30.40;;;;;;5050093;28;20312;-74
2021/07/29 08:23:46;;;;;;;3.45;3.25;;;40.30;30.30;;;;;;5038409;28;20259;-74
2021/07/29 08:26:13;;;;;;;3.33;3.13;;;40.60;30.00;;;;;;5048073;28;20216;-74
2021/07/29 08:28:42;;;;;;;3.40;3.20;;;41.10;29.90;;;;;;5051230;28;20197;-75
2021/07/29 08:31:11;;;;;;;3.00;2.90;;;41.90;29.50;;;;;;5048218;28;20637;-74
2021/07/29 08:33:38;;;;;;;3.25;3.15;;;42.70;28.90;;;;;;5049362;28;20231;-74
2021/07/29 08:36:06;;;;;;;3.30;3.05;;;43.20;28.40;;;;;;5047927;28;20722;-74
2021/07/29 08:38:32;;;;;;;3.50;3.30;;;42.80;28.40;;;;;;5046823;28;20685;-73
2021/07/29 08:40:59;;;;;;;3.40;3.20;;;42.20;28.80;;;;;;5048959;28;20197;-74
2021/07/29 08:43:28;;;;;;;2.95;2.75;;;41.60;29.60;;;;;;5049085;28;20193;-74
2021/07/29 08:45:55;;;;;;;3.60;3.30;;;41.20;29.40;;;;;;5048512;28;20227;-73
2021/07/29 08:48:27;;;;;;;3.83;3.58;;;41.80;29.40;;;;;;5037161;28;20202;-73
2021/07/29 08:50:54;;;;;;;3.20;3.10;;;43.40;28.50;;;;;;5048082;28;20593;-73
2021/07/29 08:53:21;;;;;;;3.35;3.25;;;44.90;28.10;;;;;;5047239;28;20216;-74
2021/07/29 08:55:49;;;;;;;3.72;3.53;;;46.20;27.50;;;;;;5045586;28;20589;-74
2021/07/29 08:58:17;;;;;;;3.22;3.10;;;45.90;26.60;;;;;;5049138;28;20606;-74
2021/07/29 09:01:00;;;;;;;2.95;2.85;;;44.70;27.10;;;;;;5048534;28;20221;-74
2021/07/29 09:03:28;;;;;;;3.90;3.60;;;43.10;27.90;;;;;;5049592;28;20197;-73
2021/07/29 09:06:09;;;;;;;3.50;3.30;;;41.80;28.80;;;;;;5048064;28;20197;-73
2021/07/29 09:08:47;;;;;;;3.33;3.00;;;40.50;29.50;;;;;;5050467;28;20219;-72
2021/07/29 09:11:27;;;;;;;3.13;2.90;;;39.50;30.40;;;;;;5046023;28;20386;-74
2021/07/29 09:14:11;;;;;;;2.90;2.80;;;38.50;31.00;;;;;;5048126;28;20236;-73
2021/07/29 09:16:58;;;;;;;3.00;2.80;;;38.60;31.10;;;;;;5040721;28;20657;-73
2021/07/29 09:19:34;;;;;;;2.63;2.53;;;38.80;31.10;;;;;;5045269;28;20212;-73
2021/07/29 09:22:13;;;;;;;2.72;2.53;;;38.80;31.10;;;;;;5047285;28;20229;-74
2021/07/29 09:25:01;;;;;;;2.50;2.40;;;38.30;31.20;;;;;;5032799;28;20581;-74
2021/07/29 09:27:28;;;;;;;2.72;2.53;;;38.40;31.20;;;;;;5047010;28;20233;-72
2021/07/29 09:30:08;;;;;;;2.70;2.60;;;39.90;30.40;;;;;;5055016;28;20185;-73
2021/07/29 09:32:35;;;;;;;2.92;2.70;;;41.90;29.30;;;;;;5048834;28;20232;-74
2021/07/29 09:35:04;;;;;;;5.55;2.63;;;43.90;28.10;;;;;;5047612;28;20266;-74
2021/07/29 09:37:31;;;;;;;3.08;2.95;;;45.50;27.30;;;;;;5046092;28;20500;-74
2021/07/29 09:40:01;;;;;;;3.20;2.83;;;47.00;26.40;;;;;;5047767;28;20480;-73
2021/07/29 09:42:28;;;;;;;3.17;2.97;;;48.00;25.70;;;;;;5045425;28;20201;-74
2021/07/29 09:44:56;;;;;;;3.53;3.22;;;48.80;25.10;;;;;;5045646;28;20198;-73
2021/07/29 09:47:23;;;;;;;3.05;2.95;;;49.60;24.60;;;;;;5047006;28;20259;-74
2021/07/29 09:49:52;;;;;;;3.13;2.92;;;50.50;24.10;;;;;;5047093;28;20214;-74
2021/07/29 09:52:22;;;;;;;3.78;3.58;;;51.10;23.50;;;;;;5054306;28;20855;-74
2021/07/29 09:54:49;;;;;;;4.20;3.58;;;51.80;23.20;;;;;;5047282;28;20197;-74
2021/07/29 09:57:17;;;;;;;3.33;3.13;;;51.00;22.80;;;;;;5048130;28;20200;-74
2021/07/29 09:59:44;;;;;;;3.50;3.25;;;49.10;23.70;;;;;;5046237;28;20849;-74
2021/07/29 10:02:11;;;;;;;3.20;3.00;;;47.10;24.30;;;;;;5048659;28;20279;-74
2021/07/29 10:04:43;;;;;;;3.30;3.10;;;45.30;25.10;;;;;;5047896;28;20591;-74
2021/07/29 10:07:23;;;;;;;2.70;2.60;;;43.70;26.10;;;;;;5032653;28;20740;-74
2021/07/29 10:09:52;;;;;;;3.17;3.05;;;42.30;26.90;;;;;;5047584;28;20610;-73
2021/07/29 10:12:22;;;;;;;2.90;2.80;;;41.20;27.70;;;;;;5047314;28;20193;-73
2021/07/29 10:14:51;;;;;;;2.60;2.50;;;40.20;28.30;;;;;;5045913;28;20283;-74
2021/07/29 10:17:18;;;;;;;2.67;2.55;;;39.40;29.00;;;;;;5046543;28;20202;-73
2021/07/29 10:20:19;;;;;;;3.13;2.90;;;38.60;29.40;;;;;;5038173;28;20221;-74
2021/07/29 10:22:49;;;;;;;3.10;2.90;;;37.90;30.00;;;;;;5043801;28;20205;-73
2021/07/29 10:25:17;;;;;;;2.90;2.80;;;37.20;30.50;;;;;;5044998;28;20325;-74
2021/07/29 10:28:17;;;;;;;3.03;2.83;;;36.60;31.10;;;;;;5047544;28;20503;-74
2021/07/29 10:30:52;;;;;;;2.47;2.38;;;36.10;31.90;;;;;;5057804;28;20202;-74
2021/07/29 10:33:19;;;;;;;2.78;2.65;;;37.40;31.80;;;;;;5048237;28;20656;-74
2021/07/29 10:35:46;;;;;;;2.85;2.65;;;39.10;30.40;;;;;;5047429;28;20198;-73
2021/07/29 10:38:34;;;;;;;3.08;2.88;;;40.90;29.70;;;;;;5047050;28;20193;-73
2021/07/29 10:41:05;;;;;;;4.22;3.17;;;43.00;28.50;;;;;;5045898;28;20684;-73
2021/07/29 10:43:39;;;;;;;2.85;2.72;;;45.10;27.10;;;;;;5046663;28;20212;-73
2021/07/29 10:46:06;;;;;;;2.97;2.85;;;46.30;26.00;;;;;;5037699;28;20249;-73
2021/07/29 10:49:12;;;;;;;3.20;3.00;;;46.90;25.30;;;;;;5047461;28;20308;-74
2021/07/29 10:51:54;;;;;;;3.00;2.80;;;45.80;25.40;;;;;;5042076;28;20534;-74
2021/07/29 10:54:23;;;;;;;3.08;2.90;;;44.00;25.90;;;;;;5044399;28;20724;-74
2021/07/29 10:56:50;;;;;;;4.28;3.22;;;42.30;26.60;;;;;;5049253;28;20201;-73
2021/07/29 10:59:19;;;;;;;2.80;2.70;;;40.80;27.30;;;;;;5049264;28;20213;-74
2021/07/29 11:01:47;;;;;;;2.67;2.58;;;39.70;28.10;;;;;;5050158;28;20205;-74
2021/07/29 11:04:14;;;;;;;2.35;2.25;;;38.70;28.60;;;;;;5051220;28;20197;-74
2021/07/29 11:06:43;;;;;;;2.50;2.40;;;38.10;29.00;;;;;;5050516;28;20223;-73
2021/07/29 11:09:11;;;;;;;2.97;2.80;;;37.50;29.20;;;;;;5048087;28;20296;-74
2021/07/29 11:11:40;;;;;;;2.78;2.58;;;37.10;29.60;;;;;;5049482;28;20681;-74
2021/07/29 11:14:07;;;;;;;2.80;2.70;;;37.70;29.80;;;;;;5050403;28;20224;-74
2021/07/29 11:16:35;;;;;;;2.65;2.42;;;39.10;29.00;;;;;;5051302;28;20213;-74
2021/07/29 11:19:03;;;;;;;2.85;2.65;;;39.30;28.70;;;;;;5050320;28;20213;-73
2021/07/29 11:21:30;;;;;;;3.05;2.85;;;39.10;28.80;;;;;;5049529;28;20236;-74
2021/07/29 11:23:58;;;;;;;3.97;2.75;;;39.20;28.70;;;;;;5049224;28;20201;-73
2021/07/29 11:26:26;;;;;;;2.63;2.53;;;40.00;28.80;;;;;;5050090;28;20568;-74
2021/07/29 11:29:10;;;;;;;2.72;2.63;;;41.00;28.10;;;;;;5057687;28;20224;-74
2021/07/29 11:31:38;;;;;;;2.90;2.80;;;40.60;27.80;;;;;;5050848;28;20254;-73
2021/07/29 11:34:06;;;;;;;2.90;2.70;;;39.50;28.00;;;;;;5050388;28;20251;-74
2021/07/29 11:36:34;;;;;;;2.30;2.15;;;38.60;28.80;;;;;;5049216;28;20205;-73
2021/07/29 11:39:03;;;;;;;2.40;2.30;;;37.80;29.30;;;;;;5047918;28;20197;-74
2021/07/29 11:41:31;;;;;;;3.05;2.85;;;37.40;29.90;;;;;;5050177;28;20185;-73
2021/07/29 11:44:00;;;;;;;4.20;2.78;;;36.90;30.30;;;;;;5049964;28;20197;-73
2021/07/29 11:46:29;;;;;;;2.58;2.47;;;36.50;30.60;;;;;;5049881;28;20225;-74
2021/07/29 11:49:06;;;;;;;2.67;2.47;;;36.10;30.90;;;;;;5046464;28;20216;-73
2021/07/29 11:51:33;;;;;;;4.72;2.53;;;35.70;31.20;;;;;;5050690;28;20236;-73
2021/07/29 11:54:00;;;;;;;3.20;2.55;;;35.40;32.30;;;;;;5049178;28;20691;-74
2021/07/29 11:56:27;;;;;;;2.75;2.65;;;35.20;31.90;;;;;;5047791;28;20692;-73
2021/07/29 11:58:58;;;;;;;5.03;2.60;;;34.90;32.40;;;;;;5049924;28;20533;-73
2021/07/29 12:01:25;;;;;;;2.40;2.20;;;34.70;32.60;;;;;;5048690;28;21058;-73
2021/07/29 12:03:56;;;;;;;2.40;2.30;;;34.40;32.80;;;;;;5050814;28;20553;-74
2021/07/29 12:06:25;;;;;;;2.83;2.72;;;34.30;33.30;;;;;;5045695;28;20201;-73
2021/07/29 12:08:53;;;;;;;3.08;2.85;;;34.30;33.50;;;;;;5047923;28;20243;-73
2021/07/29 12:11:22;;;;;;;2.90;2.70;;;34.30;33.40;;;;;;5047983;28;20212;-73
2021/07/29 12:13:49;;;;;;;2.70;2.60;;;34.00;33.40;;;;;;5048630;28;20297;-73
2021/07/29 12:16:16;;;;;;;2.40;2.30;;;33.80;34.00;;;;;;5049573;28;20202;-73
2021/07/29 12:18:43;;;;;;;2.33;2.22;;;33.50;34.40;;;;;;5048269;28;20210;-73
2021/07/29 12:21:11;;;;;;;2.40;2.20;;;33.20;34.80;;;;;;5049690;28;20237;-73
2021/07/29 12:23:49;;;;;;;3.40;3.10;;;33.00;35.00;;;;;;5048318;28;20289;-74
2021/07/29 12:26:16;;;;;;;3.20;2.80;;;32.90;35.30;;;;;;5031348;28;20264;-74
2021/07/29 12:28:45;;;;;;;2.97;2.70;;;32.80;35.70;;;;;;5050635;28;20218;-73
2021/07/29 12:31:20;;;;;;;3.72;2.45;;;32.70;35.60;;;;;;5048109;28;20345;-73
2021/07/29 12:33:52;;;;;;;2.53;2.28;;;32.60;35.90;;;;;;5047796;28;20205;-73
2021/07/29 12:36:21;;;;;;;2.50;2.30;;;32.50;36.00;;;;;;5049762;28;20201;-73
2021/07/29 12:38:58;;;;;;;2.17;2.08;;;32.60;36.20;;;;;;5046319;28;20202;-73
2021/07/29 12:41:33;;;;;;;2.40;2.30;;;32.60;36.30;;;;;;5049085;28;20208;-73
2021/07/29 12:44:15;;;;;;;2.58;2.47;;;32.70;36.60;;;;;;5047284;28;20259;-73
2021/07/29 12:46:43;;;;;;;2.22;2.13;;;32.80;36.60;;;;;;5046573;28;20198;-73
2021/07/29 12:49:11;;;;;;;2.33;2.22;;;32.70;36.80;;;;;;5048846;28;20229;-73
2021/07/29 12:51:42;;;;;;;2.17;2.08;;;32.60;36.90;;;;;;5049479;28;20198;-73
2021/07/29 12:54:11;;;;;;;2.10;2.00;;;32.40;37.00;;;;;;5046465;28;20213;-73
2021/07/29 12:56:39;;;;;;;2.03;1.92;;;32.20;37.20;;;;;;5047273;28;20208;-73
2021/07/29 12:59:07;;;;;;;2.42;2.33;;;32.10;37.40;;;;;;5046852;28;20212;-73
2021/07/29 13:01:34;;;;;;;2.60;2.40;;;31.90;37.20;;;;;;5049250;28;20231;-73
2021/07/29 13:04:03;;;;;;;2.90;2.70;;;31.70;36.80;;;;;;5049104;28;20558;-72
2021/07/29 13:06:30;;;;;;;4.20;2.40;;;31.50;36.50;;;;;;5049286;28;20194;-74
2021/07/29 13:08:58;;;;;;;5.43;2.47;;;31.40;36.80;;;;;;5047506;28;20217;-74
2021/07/29 13:11:27;;;;;;;2.40;2.30;;;31.30;36.10;;;;;;5048235;28;20194;-74
2021/07/29 13:13:54;;;;;;;2.70;2.50;;;31.10;35.90;;;;;;5046736;28;20210;-73
2021/07/29 13:16:21;;;;;;;2.45;2.25;;;31.00;36.10;;;;;;5048829;28;20194;-74
2021/07/29 13:18:48;;;;;;;2.40;2.30;;;30.90;36.30;;;;;;5047854;28;20213;-74
2021/07/29 13:21:15;;;;;;;3.92;2.25;;;30.80;36.30;;;;;;5047745;28;20244;-74
2021/07/29 13:23:42;;;;;;;2.78;2.58;;;30.70;36.40;;;;;;5047310;28;20236;-74
2021/07/29 13:26:11;;;;;;;2.78;2.60;;;30.60;36.80;;;;;;5046277;28;20558;-74
2021/07/29 13:28:37;;;;;;;2.35;2.20;;;30.50;36.90;;;;;;5053495;28;20204;-74
2021/07/29 13:31:05;;;;;;;2.63;2.42;;;30.50;36.80;;;;;;5046426;28;20312;-74
2021/07/29 13:33:32;;;;;;;3.42;2.60;;;30.40;36.70;;;;;;5047237;28;20205;-74
2021/07/29 13:35:58;;;;;;;3.80;2.38;;;30.40;36.90;;;;;;5048179;28;20252;-73
2021/07/29 13:38:25;;;;;;;2.60;2.40;;;30.40;36.70;;;;;;5047440;28;20218;-73
2021/07/29 13:40:53;;;;;;;2.45;2.30;;;30.30;36.80;;;;;;5047148;28;20198;-73
2021/07/29 13:43:22;;;;;;;4.43;2.47;;;30.20;36.90;;;;;;5047462;28;20212;-73
2021/07/29 13:45:49;;;;;;;3.35;2.20;;;30.10;36.90;;;;;;5046608;28;20293;-73
2021/07/29 13:48:16;;;;;;;2.50;2.30;;;30.10;37.20;;;;;;5046512;28;20221;-73
2021/07/29 13:50:43;;;;;;;3.17;2.50;;;30.30;37.20;;;;;;5048012;28;20206;-73
2021/07/29 13:53:10;;;;;;;5.65;2.53;;;30.40;37.20;;;;;;5047659;28;20202;-74
2021/07/29 13:55:37;;;;;;;2.00;1.90;;;30.40;37.20;;;;;;5046509;28;20205;-73
2021/07/29 13:58:04;;;;;;;2.35;1.80;;;30.40;37.40;;;;;;5046418;28;20550;-73
2021/07/29 14:00:33;;;;;;;2.75;2.30;;;30.40;37.40;;;;;;5045893;28;20230;-73
2021/07/29 14:03:00;;;;;;;2.67;2.47;;;30.40;37.50;;;;;;5046879;28;20600;-73
2021/07/29 14:05:27;;;;;;;2.53;2.20;;;30.30;37.50;;;;;;5047597;28;20294;-73
2021/07/29 14:07:54;;;;;;;3.60;2.38;;;30.40;37.80;;;;;;5045976;28;20225;-74
2021/07/29 14:10:21;;;;;;;3.92;2.40;;;30.40;38.00;;;;;;5046335;28;20295;-73
2021/07/29 14:12:48;;;;;;;2.00;1.90;;;30.40;37.90;;;;;;5048273;28;20315;-73
2021/07/29 14:15:15;;;;;;;2.75;2.22;;;30.40;37.90;;;;;;5046328;28;20217;-73
2021/07/29 14:17:48;;;;;;;2.47;2.38;;;30.40;37.80;;;;;;5046421;28;20644;-73
2021/07/29 14:20:25;;;;;;;2.28;2.17;;;30.40;38.10;;;;;;5047444;28;20240;-73
2021/07/29 14:23:05;;;;;;;2.10;2.00;;;30.40;38.20;;;;;;5047504;28;20206;-73
2021/07/29 14:25:32;;;;;;;2.22;2.03;;;30.40;38.20;;;;;;5050780;28;20296;-73
2021/07/29 14:28:00;;;;;;;2.15;2.05;;;30.40;38.30;;;;;;5049475;28;20229;-75
2021/07/29 14:30:27;;;;;;;2.30;2.20;;;30.30;38.20;;;;;;5051999;28;20680;-74
2021/07/29 14:32:56;;;;;;;2.40;2.25;;;30.30;38.30;;;;;;5050813;28;20209;-74
2021/07/29 14:35:23;;;;;;;2.10;2.00;;;30.30;38.40;;;;;;5050295;28;20288;-74
2021/07/29 14:37:50;;;;;;;2.20;2.10;;;30.30;38.30;;;;;;5051267;28;20549;-74
2021/07/29 14:40:17;;;;;;;2.03;1.92;;;30.30;38.30;;;;;;5050041;28;20198;-73
2021/07/29 14:42:44;;;;;;;2.53;2.33;;;30.30;38.20;;;;;;5052028;28;20197;-73
2021/07/29 14:50:52;;;;;;;2.28;2.17;;;29.90;38.30;;;;;;4973196;28;20278;-73
2021/07/29 14:53:20;;;;;;;2.58;2.42;;;29.80;38.50;;;;;;4973211;28;20659;-73
2021/07/29 14:56:05;;;;;;;2.70;2.50;;;29.70;38.60;;;;;;4988485;28;20200;-74
2021/07/29 16:07:46;;;;;;;2.30;2.20;;;29.40;41.50;;;;;;5049018;28;20200;-74
2021/07/29 16:10:14;;;;;;;2.25;2.15;;;29.30;41.50;;;;;;5046852;28;20205;-74
2021/07/29 16:12:44;;;;;;;2.15;2.00;;;29.30;41.60;;;;;;5048558;28;20293;-74
2021/07/29 16:15:12;;;;;;;2.63;2.42;;;29.20;41.60;;;;;;5047641;28;20218;-74
2021/07/29 16:17:39;;;;;;;2.72;2.45;;;29.10;41.60;;;;;;5050271;28;20209;-74
2021/07/29 16:20:07;;;;;;;2.92;2.05;;;29.00;41.70;;;;;;5048957;28;20230;-74
2021/07/29 16:22:34;;;;;;;2.33;2.22;;;29.00;41.80;;;;;;5048342;28;20197;-74
2021/07/29 16:25:01;;;;;;;2.33;2.22;;;28.90;41.60;;;;;;5048652;28;20198;-74
2021/07/29 16:27:29;;;;;;;2.50;2.30;;;28.80;41.50;;;;;;5049836;28;20661;-74
2021/07/29 16:29:56;;;;;;;2.42;1.92;;;28.80;41.30;;;;;;5055680;28;20602;-74
2021/07/29 16:32:22;;;;;;;3.03;2.00;;;28.70;41.20;;;;;;5047946;28;20691;-74
2021/07/29 16:34:50;;;;;;;2.42;2.22;;;28.70;41.00;;;;;;5048434;28;20288;-73
2021/07/29 16:37:17;;;;;;;2.00;1.90;;;28.60;41.00;;;;;;5048985;28;20221;-73
2021/07/29 16:39:44;;;;;;;2.10;1.90;;;28.50;41.00;;;;;;5046538;28;20194;-73
2021/07/29 16:42:11;;;;;;;1.80;1.70;;;28.40;41.10;;;;;;5047964;28;20293;-74
2021/07/29 16:44:39;;;;;;;1.80;1.70;;;28.40;41.30;;;;;;5047611;28;20210;-74
2021/07/29 16:47:06;;;;;;;2.20;2.10;;;28.30;41.20;;;;;;5045166;28;20220;-74
2021/07/29 16:49:33;;;;;;;2.25;2.15;;;28.20;41.20;;;;;;5047673;28;20724;-74
2021/07/29 16:52:00;;;;;;;5.20;2.22;;;28.20;41.30;;;;;;5047971;28;20197;-73
2021/07/29 16:54:27;;;;;;;2.30;2.10;;;28.00;41.40;;;;;;5045835;28;20745;-73
2021/07/29 16:56:56;;;;;;;1.80;1.70;;;28.00;41.40;;;;;;5049164;28;20200;-74
2021/07/29 16:59:23;;;;;;;2.28;2.17;;;27.90;41.50;;;;;;5047127;28;20218;-73
2021/07/29 17:01:52;;;;;;;2.20;2.10;;;27.70;41.60;;;;;;5049203;28;20304;-73
2021/07/29 17:04:19;;;;;;;4.45;2.75;;;27.70;41.60;;;;;;5050808;28;20218;-73
2021/07/29 17:06:46;;;;;;;2.08;1.90;;;27.60;41.80;;;;;;5049259;28;20571;-73
2021/07/29 17:09:13;;;;;;;1.92;1.80;;;27.50;41.70;;;;;;5046875;28;20527;-74
2021/07/29 17:11:40;;;;;;;1.80;1.70;;;27.40;41.90;;;;;;5048347;28;20213;-73
2021/07/29 17:14:07;;;;;;;1.88;1.77;;;27.40;42.20;;;;;;5048156;28;20297;-74
2021/07/29 17:16:34;;;;;;;1.83;1.67;;;27.30;42.10;;;;;;5048046;28;20578;-73
2021/07/29 17:19:02;;;;;;;1.58;1.52;;;27.30;42.20;;;;;;5048530;28;20288;-73
2021/07/29 17:21:29;;;;;;;3.92;1.90;;;27.30;42.50;;;;;;5047902;28;20233;-73
2021/07/29 17:23:56;;;;;;;2.30;2.10;;;27.20;43.10;;;;;;5045290;28;20257;-73
2021/07/29 17:26:23;;;;;;;1.67;1.58;;;27.10;45.10;;;;;;5046992;28;20213;-72
2021/07/29 17:28:51;;;;;;;2.05;1.95;;;26.80;45.50;;;;;;5053651;28;20566;-73
2021/07/29 17:31:18;;;;;;;1.70;1.60;;;26.70;46.10;;;;;;5048354;28;20202;-73